sensor_id;sensor_type;location;lat;lon;timestamp;pressure;altitude;pressure_sealevel;temperature;humidity
40946;BME280;55635;50.264;11.918;2023-12-14T00:00:02;94425.03;;;7.65;96.31
40946;BME280;55635;50.264;11.918;2023-12-14T00:02:46;94434.19;;;7.69;96.29
40946;BME280;55635;50.264;11.918;2023-12-14T00:05:27;94436.22;;;7.74;96.23
40946;BME280;55635;50.264;11.918;2023-12-14T00:08:08;94444.00;;;7.82;96.32
40946;BME280;55635;50.264;11.918;2023-12-14T00:10:49;94437.94;;;7.88;95.76
40946;BME280;55635;50.264;11.918;2023-12-14T00:13:31;94424.28;;;7.78;95.30
40946;BME280;55635;50.264;11.918;2023-12-14T00:16:12;94443.53;;;7.72;94.23
40946;BME280;55635;50.264;11.918;2023-12-14T00:18:52;94446.38;;;7.70;95.87
40946;BME280;55635;50.264;11.918;2023-12-14T00:21:34;94449.22;;;7.68;96.40
40946;BME280;55635;50.264;11.918;2023-12-14T00:24:15;94449.03;;;7.70;96.32
40946;BME280;55635;50.264;11.918;2023-12-14T00:26:56;94459.00;;;7.81;96.13
40946;BME280;55635;50.264;11.918;2023-12-14T00:29:37;94455.56;;;7.81;95.50
40946;BME280;55635;50.264;11.918;2023-12-14T00:32:18;94459.22;;;7.80;95.60
40946;BME280;55635;50.264;11.918;2023-12-14T00:34:59;94469.56;;;7.81;95.60
40946;BME280;55635;50.264;11.918;2023-12-14T00:37:40;94474.16;;;7.66;96.38
40946;BME280;55635;50.264;11.918;2023-12-14T00:40:21;94469.75;;;7.73;96.61
40946;BME280;55635;50.264;11.918;2023-12-14T00:43:02;94471.69;;;7.64;96.69
40946;BME280;55635;50.264;11.918;2023-12-14T00:45:43;94468.03;;;7.59;97.02
40946;BME280;55635;50.264;11.918;2023-12-14T00:48:24;94475.31;;;7.57;96.85
40946;BME280;55635;50.264;11.918;2023-12-14T00:51:05;94483.47;;;7.62;96.87
40946;BME280;55635;50.264;11.918;2023-12-14T00:53:46;94459.81;;;7.41;97.04
40946;BME280;55635;50.264;11.918;2023-12-14T00:56:27;94494.72;;;7.43;97.67
40946;BME280;55635;50.264;11.918;2023-12-14T00:59:08;94491.88;;;7.44;97.93
40946;BME280;55635;50.264;11.918;2023-12-14T01:01:49;94499.84;;;7.51;97.72
40946;BME280;55635;50.264;11.918;2023-12-14T01:04:30;94495.78;;;7.48;98.00
40946;BME280;55635;50.264;11.918;2023-12-14T01:07:11;94503.25;;;7.45;98.13
40946;BME280;55635;50.264;11.918;2023-12-14T01:09:52;94506.53;;;7.53;98.07
40946;BME280;55635;50.264;11.918;2023-12-14T01:12:33;94502.28;;;7.52;97.73
40946;BME280;55635;50.264;11.918;2023-12-14T01:15:14;94508.22;;;7.61;97.29
40946;BME280;55635;50.264;11.918;2023-12-14T01:17:55;94513.13;;;7.64;97.03
40946;BME280;55635;50.264;11.918;2023-12-14T01:20:36;94511.47;;;7.63;96.72
40946;BME280;55635;50.264;11.918;2023-12-14T01:23:17;94511.13;;;7.73;96.33
40946;BME280;55635;50.264;11.918;2023-12-14T01:25:58;94520.44;;;7.68;96.16
40946;BME280;55635;50.264;11.918;2023-12-14T01:28:39;94526.53;;;7.69;96.04
40946;BME280;55635;50.264;11.918;2023-12-14T01:31:20;94535.47;;;7.75;96.11
40946;BME280;55635;50.264;11.918;2023-12-14T01:34:04;94528.00;;;7.78;95.87
40946;BME280;55635;50.264;11.918;2023-12-14T01:36:46;94541.56;;;7.75;95.85
40946;BME280;55635;50.264;11.918;2023-12-14T01:39:27;94537.31;;;7.74;95.89
40946;BME280;55635;50.264;11.918;2023-12-14T01:42:08;94541.81;;;7.80;95.53
40946;BME280;55635;50.264;11.918;2023-12-14T01:44:49;94549.72;;;7.80;95.19
40946;BME280;55635;50.264;11.918;2023-12-14T01:47:30;94541.84;;;7.87;95.25
40946;BME280;55635;50.264;11.918;2023-12-14T01:50:11;94553.66;;;7.91;94.82
40946;BME280;55635;50.264;11.918;2023-12-14T01:52:52;94555.91;;;7.94;94.46
40946;BME280;55635;50.264;11.918;2023-12-14T01:55:33;94558.50;;;7.87;94.64
40946;BME280;55635;50.264;11.918;2023-12-14T01:58:14;94560.13;;;7.88;95.16
40946;BME280;55635;50.264;11.918;2023-12-14T02:03:52;94561.56;;;7.91;94.61
40946;BME280;55635;50.264;11.918;2023-12-14T02:06:35;94562.59;;;7.96;94.55
40946;BME280;55635;50.264;11.918;2023-12-14T02:09:16;94568.50;;;7.98;94.48
40946;BME280;55635;50.264;11.918;2023-12-14T02:11:57;94577.06;;;8.00;94.23
40946;BME280;55635;50.264;11.918;2023-12-14T02:14:38;94575.41;;;7.99;94.38
40946;BME280;55635;50.264;11.918;2023-12-14T02:17:19;94574.97;;;7.96;94.61
40946;BME280;55635;50.264;11.918;2023-12-14T02:20:00;94570.94;;;8.00;94.37
40946;BME280;55635;50.264;11.918;2023-12-14T02:22:54;94566.50;;;8.00;94.22
40946;BME280;55635;50.264;11.918;2023-12-14T02:25:35;94575.81;;;7.96;94.34
40946;BME280;55635;50.264;11.918;2023-12-14T02:28:17;94591.69;;;8.03;94.37
40946;BME280;55635;50.264;11.918;2023-12-14T02:30:58;94590.25;;;8.00;94.77
40946;BME280;55635;50.264;11.918;2023-12-14T02:33:39;94591.25;;;7.99;94.32
40946;BME280;55635;50.264;11.918;2023-12-14T02:36:20;94583.53;;;7.98;94.31
40946;BME280;55635;50.264;11.918;2023-12-14T02:39:01;94586.34;;;7.96;94.53
40946;BME280;55635;50.264;11.918;2023-12-14T02:41:41;94589.22;;;8.01;94.39
40946;BME280;55635;50.264;11.918;2023-12-14T02:44:23;94597.56;;;8.05;94.17
40946;BME280;55635;50.264;11.918;2023-12-14T02:47:04;94589.59;;;7.98;94.10
40946;BME280;55635;50.264;11.918;2023-12-14T02:49:45;94601.03;;;8.05;94.38
40946;BME280;55635;50.264;11.918;2023-12-14T02:52:26;94597.94;;;8.02;93.87
40946;BME280;55635;50.264;11.918;2023-12-14T02:55:07;94608.56;;;8.08;94.17
40946;BME280;55635;50.264;11.918;2023-12-14T02:57:48;94605.81;;;7.95;94.51
40946;BME280;55635;50.264;11.918;2023-12-14T03:00:29;94607.31;;;8.04;94.30
40946;BME280;55635;50.264;11.918;2023-12-14T03:03:10;94622.53;;;8.02;93.83
40946;BME280;55635;50.264;11.918;2023-12-14T03:05:51;94611.53;;;7.99;93.80
40946;BME280;55635;50.264;11.918;2023-12-14T03:08:32;94626.81;;;8.03;93.96
40946;BME280;55635;50.264;11.918;2023-12-14T03:11:22;94626.03;;;8.09;94.17
40946;BME280;55635;50.264;11.918;2023-12-14T03:14:04;94627.25;;;8.07;93.53
40946;BME280;55635;50.264;11.918;2023-12-14T03:16:45;94634.94;;;8.08;93.70
40946;BME280;55635;50.264;11.918;2023-12-14T03:19:26;94636.19;;;8.12;93.89
40946;BME280;55635;50.264;11.918;2023-12-14T03:22:07;94637.59;;;8.08;93.92
40946;BME280;55635;50.264;11.918;2023-12-14T03:24:48;94642.09;;;8.14;93.85
40946;BME280;55635;50.264;11.918;2023-12-14T03:27:29;94642.47;;;8.11;94.10
40946;BME280;55635;50.264;11.918;2023-12-14T03:30:10;94646.75;;;8.12;94.35
40946;BME280;55635;50.264;11.918;2023-12-14T03:32:51;94656.69;;;8.10;94.22
40946;BME280;55635;50.264;11.918;2023-12-14T03:35:32;94659.19;;;8.18;94.67
40946;BME280;55635;50.264;11.918;2023-12-14T03:38:16;94667.34;;;8.23;94.29
40946;BME280;55635;50.264;11.918;2023-12-14T03:40:57;94646.97;;;8.17;94.44
40946;BME280;55635;50.264;11.918;2023-12-14T03:43:38;94662.34;;;8.29;94.28
40946;BME280;55635;50.264;11.918;2023-12-14T03:46:19;94664.97;;;8.29;94.39
40946;BME280;55635;50.264;11.918;2023-12-14T03:49:00;94666.19;;;8.33;94.34
40946;BME280;55635;50.264;11.918;2023-12-14T03:51:41;94677.59;;;8.33;94.30
40946;BME280;55635;50.264;11.918;2023-12-14T03:54:22;94683.47;;;8.35;94.51
40946;BME280;55635;50.264;11.918;2023-12-14T03:57:03;94685.31;;;8.35;95.02
40946;BME280;55635;50.264;11.918;2023-12-14T03:59:44;94678.22;;;8.14;95.70
40946;BME280;55635;50.264;11.918;2023-12-14T04:02:25;94695.03;;;8.28;95.96
40946;BME280;55635;50.264;11.918;2023-12-14T04:05:07;94684.06;;;8.31;96.38
40946;BME280;55635;50.264;11.918;2023-12-14T04:07:51;94688.03;;;8.20;97.04
40946;BME280;55635;50.264;11.918;2023-12-14T04:10:32;94695.75;;;8.21;97.05
40946;BME280;55635;50.264;11.918;2023-12-14T04:13:13;94693.72;;;8.23;96.72
40946;BME280;55635;50.264;11.918;2023-12-14T04:15:54;94692.53;;;8.26;96.96
40946;BME280;55635;50.264;11.918;2023-12-14T04:18:35;94708.84;;;8.30;97.27
40946;BME280;55635;50.264;11.918;2023-12-14T04:21:16;94697.38;;;8.22;97.55
40946;BME280;55635;50.264;11.918;2023-12-14T04:23:57;94716.16;;;8.28;97.56
40946;BME280;55635;50.264;11.918;2023-12-14T04:26:38;94718.94;;;8.26;97.78
40946;BME280;55635;50.264;11.918;2023-12-14T04:29:19;94724.41;;;8.25;97.96
40946;BME280;55635;50.264;11.918;2023-12-14T04:32:00;94734.09;;;8.39;97.75
40946;BME280;55635;50.264;11.918;2023-12-14T04:34:41;94736.13;;;8.37;97.11
40946;BME280;55635;50.264;11.918;2023-12-14T04:37:22;94748.72;;;8.35;97.33
40946;BME280;55635;50.264;11.918;2023-12-14T04:40:03;94748.50;;;8.36;97.28
40946;BME280;55635;50.264;11.918;2023-12-14T04:42:44;94746.84;;;8.35;97.44
40946;BME280;55635;50.264;11.918;2023-12-14T04:45:25;94742.56;;;8.28;97.38
40946;BME280;55635;50.264;11.918;2023-12-14T04:48:06;94758.00;;;8.31;97.60
40946;BME280;55635;50.264;11.918;2023-12-14T04:50:49;94760.44;;;8.32;97.48
40946;BME280;55635;50.264;11.918;2023-12-14T04:53:30;94760.28;;;8.34;97.54
40946;BME280;55635;50.264;11.918;2023-12-14T04:56:12;94768.38;;;8.32;97.63
40946;BME280;55635;50.264;11.918;2023-12-14T04:58:53;94773.47;;;8.34;97.18
40946;BME280;55635;50.264;11.918;2023-12-14T05:01:34;94779.81;;;8.39;97.17
40946;BME280;55635;50.264;11.918;2023-12-14T05:04:15;94779.63;;;8.41;97.21
40946;BME280;55635;50.264;11.918;2023-12-14T05:06:55;94790.97;;;8.35;97.37
40946;BME280;55635;50.264;11.918;2023-12-14T05:09:36;94786.84;;;8.32;97.51
40946;BME280;55635;50.264;11.918;2023-12-14T05:12:18;94795.38;;;8.28;97.36
40946;BME280;55635;50.264;11.918;2023-12-14T05:14:59;94784.13;;;8.26;97.39
40946;BME280;55635;50.264;11.918;2023-12-14T05:17:40;94801.16;;;8.38;97.37
40946;BME280;55635;50.264;11.918;2023-12-14T05:20:21;94794.59;;;8.34;97.06
40946;BME280;55635;50.264;11.918;2023-12-14T05:23:02;94804.63;;;8.45;96.69
40946;BME280;55635;50.264;11.918;2023-12-14T05:25:44;94807.66;;;8.42;96.54
40946;BME280;55635;50.264;11.918;2023-12-14T05:28:25;94821.91;;;8.47;96.52
40946;BME280;55635;50.264;11.918;2023-12-14T05:31:06;94816.59;;;8.41;96.62
40946;BME280;55635;50.264;11.918;2023-12-14T05:33:47;94815.84;;;8.47;96.17
40946;BME280;55635;50.264;11.918;2023-12-14T05:36:28;94824.75;;;8.25;96.97
40946;BME280;55635;50.264;11.918;2023-12-14T05:39:09;94823.66;;;8.34;96.84
40946;BME280;55635;50.264;11.918;2023-12-14T05:41:50;94834.06;;;8.42;96.63
40946;BME280;55635;50.264;11.918;2023-12-14T05:44:31;94833.22;;;8.35;97.13
40946;BME280;55635;50.264;11.918;2023-12-14T05:47:12;94834.38;;;8.32;97.00
40946;BME280;55635;50.264;11.918;2023-12-14T05:49:52;94846.66;;;8.40;96.91
40946;BME280;55635;50.264;11.918;2023-12-14T05:52:33;94859.41;;;8.36;96.69
40946;BME280;55635;50.264;11.918;2023-12-14T05:55:14;94862.13;;;8.43;96.92
40946;BME280;55635;50.264;11.918;2023-12-14T05:57:55;94860.19;;;8.30;97.42
40946;BME280;55635;50.264;11.918;2023-12-14T06:00:37;94868.78;;;8.39;96.96
40946;BME280;55635;50.264;11.918;2023-12-14T06:03:18;94873.50;;;8.43;96.64
40946;BME280;55635;50.264;11.918;2023-12-14T06:05:59;94879.25;;;8.47;96.60
40946;BME280;55635;50.264;11.918;2023-12-14T06:08:40;94887.41;;;8.52;96.51
40946;BME280;55635;50.264;11.918;2023-12-14T06:11:21;94888.97;;;8.46;96.45
40946;BME280;55635;50.264;11.918;2023-12-14T06:14:02;94890.19;;;8.44;96.93
40946;BME280;55635;50.264;11.918;2023-12-14T06:16:44;94901.75;;;8.43;96.89
40946;BME280;55635;50.264;11.918;2023-12-14T06:19:25;94895.94;;;8.33;97.55
40946;BME280;55635;50.264;11.918;2023-12-14T06:22:05;94908.78;;;8.36;97.26
40946;BME280;55635;50.264;11.918;2023-12-14T06:24:46;94905.38;;;8.42;96.92
40946;BME280;55635;50.264;11.918;2023-12-14T06:27:28;94916.59;;;8.44;97.03
40946;BME280;55635;50.264;11.918;2023-12-14T06:30:09;94917.34;;;8.38;97.05
40946;BME280;55635;50.264;11.918;2023-12-14T06:32:51;94919.63;;;8.41;96.91
40946;BME280;55635;50.264;11.918;2023-12-14T06:35:32;94907.16;;;8.35;97.26
40946;BME280;55635;50.264;11.918;2023-12-14T06:38:13;94925.97;;;8.46;96.91
40946;BME280;55635;50.264;11.918;2023-12-14T06:40:54;94931.31;;;8.53;96.65
40946;BME280;55635;50.264;11.918;2023-12-14T06:43:34;94926.44;;;8.56;96.42
40946;BME280;55635;50.264;11.918;2023-12-14T06:46:17;94936.44;;;8.61;96.08
40946;BME280;55635;50.264;11.918;2023-12-14T06:48:59;94935.78;;;8.52;96.24
40946;BME280;55635;50.264;11.918;2023-12-14T06:51:39;94942.78;;;8.66;96.07
40946;BME280;55635;50.264;11.918;2023-12-14T06:54:20;94956.44;;;8.70;95.91
40946;BME280;55635;50.264;11.918;2023-12-14T06:57:02;94953.38;;;8.66;95.85
40946;BME280;55635;50.264;11.918;2023-12-14T06:59:43;94951.69;;;8.59;96.15
40946;BME280;55635;50.264;11.918;2023-12-14T07:02:24;94947.97;;;8.53;96.23
40946;BME280;55635;50.264;11.918;2023-12-14T07:05:05;94971.25;;;8.64;96.12
40946;BME280;55635;50.264;11.918;2023-12-14T07:07:46;94972.88;;;8.65;95.96
40946;BME280;55635;50.264;11.918;2023-12-14T07:10:27;94979.63;;;8.68;96.01
40946;BME280;55635;50.264;11.918;2023-12-14T07:13:08;94993.06;;;8.73;95.65
40946;BME280;55635;50.264;11.918;2023-12-14T07:15:49;94989.44;;;8.74;95.84
40946;BME280;55635;50.264;11.918;2023-12-14T07:18:30;94994.34;;;8.77;95.36
40946;BME280;55635;50.264;11.918;2023-12-14T07:21:11;94999.63;;;8.77;95.56
40946;BME280;55635;50.264;11.918;2023-12-14T07:23:51;95003.44;;;8.74;95.60
40946;BME280;55635;50.264;11.918;2023-12-14T07:26:32;94998.13;;;8.68;95.51
40946;BME280;55635;50.264;11.918;2023-12-14T07:29:13;95001.00;;;8.73;95.58
40946;BME280;55635;50.264;11.918;2023-12-14T07:31:54;95022.28;;;8.86;95.09
40946;BME280;55635;50.264;11.918;2023-12-14T07:34:35;95009.09;;;8.71;95.29
40946;BME280;55635;50.264;11.918;2023-12-14T07:37:16;95016.41;;;8.69;95.46
40946;BME280;55635;50.264;11.918;2023-12-14T07:39:57;95029.19;;;8.66;95.64
40946;BME280;55635;50.264;11.918;2023-12-14T07:42:38;95028.47;;;8.57;95.81
40946;BME280;55635;50.264;11.918;2023-12-14T07:45:19;95036.09;;;8.67;96.00
40946;BME280;55635;50.264;11.918;2023-12-14T07:48:00;95039.19;;;8.70;96.04
40946;BME280;55635;50.264;11.918;2023-12-14T07:50:41;95040.81;;;8.71;95.98
40946;BME280;55635;50.264;11.918;2023-12-14T07:53:22;95036.09;;;8.67;96.07
40946;BME280;55635;50.264;11.918;2023-12-14T07:56:04;95056.19;;;8.83;95.78
40946;BME280;55635;50.264;11.918;2023-12-14T07:58:45;95051.47;;;8.78;95.65
40946;BME280;55635;50.264;11.918;2023-12-14T08:01:25;95062.94;;;8.85;95.75
40946;BME280;55635;50.264;11.918;2023-12-14T08:04:06;95064.50;;;8.80;95.71
40946;BME280;55635;50.264;11.918;2023-12-14T08:06:47;95066.06;;;8.74;95.92
40946;BME280;55635;50.264;11.918;2023-12-14T08:09:28;95065.69;;;8.77;95.70
40946;BME280;55635;50.264;11.918;2023-12-14T08:12:09;95059.13;;;8.73;95.53
40946;BME280;55635;50.264;11.918;2023-12-14T08:14:50;95079.53;;;8.79;95.46
40946;BME280;55635;50.264;11.918;2023-12-14T08:17:31;95082.63;;;8.83;95.33
40946;BME280;55635;50.264;11.918;2023-12-14T08:20:12;95087.84;;;8.76;95.18
40946;BME280;55635;50.264;11.918;2023-12-14T08:22:53;95085.34;;;8.89;94.89
40946;BME280;55635;50.264;11.918;2023-12-14T08:25:34;95091.38;;;8.83;95.37
40946;BME280;55635;50.264;11.918;2023-12-14T08:28:15;95103.94;;;8.81;95.14
40946;BME280;55635;50.264;11.918;2023-12-14T08:30:56;95105.22;;;8.85;95.91
40946;BME280;55635;50.264;11.918;2023-12-14T08:33:41;95116.41;;;8.87;95.78
40946;BME280;55635;50.264;11.918;2023-12-14T08:36:23;95124.47;;;8.79;96.00
40946;BME280;55635;50.264;11.918;2023-12-14T08:39:04;95119.94;;;8.73;96.50
40946;BME280;55635;50.264;11.918;2023-12-14T08:41:48;95132.53;;;8.71;96.71
40946;BME280;55635;50.264;11.918;2023-12-14T08:44:29;95135.88;;;8.80;96.11
40946;BME280;55635;50.264;11.918;2023-12-14T08:47:10;95138.75;;;8.85;95.95
40946;BME280;55635;50.264;11.918;2023-12-14T08:49:51;95146.22;;;8.96;96.06
40946;BME280;55635;50.264;11.918;2023-12-14T08:52:32;95142.25;;;9.06;95.44
40946;BME280;55635;50.264;11.918;2023-12-14T08:55:13;95137.03;;;8.92;95.34
40946;BME280;55635;50.264;11.918;2023-12-14T08:57:55;95158.09;;;8.85;95.86
40946;BME280;55635;50.264;11.918;2023-12-14T09:00:37;95156.56;;;8.76;96.21
40946;BME280;55635;50.264;11.918;2023-12-14T09:03:19;95163.41;;;8.70;96.56
40946;BME280;55635;50.264;11.918;2023-12-14T09:06:00;95169.59;;;8.63;96.96
40946;BME280;55635;50.264;11.918;2023-12-14T09:08:44;95163.34;;;8.35;97.63
40946;BME280;55635;50.264;11.918;2023-12-14T09:11:25;95183.28;;;8.52;97.34
40946;BME280;55635;50.264;11.918;2023-12-14T09:14:06;95182.94;;;8.40;97.38
40946;BME280;55635;50.264;11.918;2023-12-14T09:16:47;95186.91;;;8.51;97.72
40946;BME280;55635;50.264;11.918;2023-12-14T09:19:30;95189.22;;;8.39;97.62
40946;BME280;55635;50.264;11.918;2023-12-14T09:22:12;95189.94;;;8.48;97.66
40946;BME280;55635;50.264;11.918;2023-12-14T09:24:53;95188.94;;;8.49;97.73
40946;BME280;55635;50.264;11.918;2023-12-14T09:27:34;95199.22;;;8.58;97.68
40946;BME280;55635;50.264;11.918;2023-12-14T09:30:15;95203.13;;;8.62;97.40
40946;BME280;55635;50.264;11.918;2023-12-14T09:32:58;95206.88;;;8.68;97.28
40946;BME280;55635;50.264;11.918;2023-12-14T09:35:39;95201.94;;;8.80;96.93
40946;BME280;55635;50.264;11.918;2023-12-14T09:38:20;95211.13;;;8.98;96.10
40946;BME280;55635;50.264;11.918;2023-12-14T09:41:01;95220.06;;;8.97;95.47
40946;BME280;55635;50.264;11.918;2023-12-14T09:43:42;95218.69;;;9.01;95.58
40946;BME280;55635;50.264;11.918;2023-12-14T09:46:25;95211.84;;;9.07;95.12
40946;BME280;55635;50.264;11.918;2023-12-14T09:49:08;95217.28;;;9.05;94.53
40946;BME280;55635;50.264;11.918;2023-12-14T09:51:50;95224.47;;;9.11;94.46
40946;BME280;55635;50.264;11.918;2023-12-14T09:54:31;95227.06;;;9.05;94.45
40946;BME280;55635;50.264;11.918;2023-12-14T09:57:12;95224.22;;;9.06;94.87
40946;BME280;55635;50.264;11.918;2023-12-14T09:59:54;95227.00;;;8.98;94.96
40946;BME280;55635;50.264;11.918;2023-12-14T10:02:36;95235.44;;;9.08;94.43
40946;BME280;55635;50.264;11.918;2023-12-14T10:05:17;95235.63;;;9.07;94.15
40946;BME280;55635;50.264;11.918;2023-12-14T10:07:58;95239.09;;;9.07;94.37
40946;BME280;55635;50.264;11.918;2023-12-14T10:10:39;95238.16;;;9.15;94.68
40946;BME280;55635;50.264;11.918;2023-12-14T10:13:23;95238.06;;;9.23;93.97
40946;BME280;55635;50.264;11.918;2023-12-14T10:16:32;95242.41;;;9.30;94.07
40946;BME280;55635;50.264;11.918;2023-12-14T10:19:13;95233.41;;;9.25;94.33
40946;BME280;55635;50.264;11.918;2023-12-14T10:21:55;95239.16;;;9.28;94.10
40946;BME280;55635;50.264;11.918;2023-12-14T10:24:37;95240.75;;;9.29;94.30
40946;BME280;55635;50.264;11.918;2023-12-14T10:27:17;95237.78;;;9.33;94.32
40946;BME280;55635;50.264;11.918;2023-12-14T10:29:59;95248.41;;;9.39;94.18
40946;BME280;55635;50.264;11.918;2023-12-14T10:32:40;95246.97;;;9.37;93.85
40946;BME280;55635;50.264;11.918;2023-12-14T10:35:22;95243.78;;;9.26;94.45
40946;BME280;55635;50.264;11.918;2023-12-14T10:38:05;95253.56;;;9.26;94.18
40946;BME280;55635;50.264;11.918;2023-12-14T10:40:46;95262.00;;;9.36;94.20
40946;BME280;55635;50.264;11.918;2023-12-14T10:43:27;95258.50;;;9.29;94.45
40946;BME280;55635;50.264;11.918;2023-12-14T10:46:10;95255.09;;;9.35;94.42
40946;BME280;55635;50.264;11.918;2023-12-14T10:48:52;95259.84;;;9.25;94.61
40946;BME280;55635;50.264;11.918;2023-12-14T10:51:33;95261.13;;;9.29;94.75
40946;BME280;55635;50.264;11.918;2023-12-14T10:54:18;95263.41;;;9.17;95.42
40946;BME280;55635;50.264;11.918;2023-12-14T10:56:59;95262.53;;;9.10;94.86
40946;BME280;55635;50.264;11.918;2023-12-14T10:59:42;95270.09;;;9.13;95.25
40946;BME280;55635;50.264;11.918;2023-12-14T11:02:23;95273.28;;;9.09;95.40
40946;BME280;55635;50.264;11.918;2023-12-14T11:05:05;95268.94;;;9.01;95.84
40946;BME280;55635;50.264;11.918;2023-12-14T11:07:54;95280.38;;;9.08;96.15
40946;BME280;55635;50.264;11.918;2023-12-14T11:10:52;95282.94;;;9.16;95.67
40946;BME280;55635;50.264;11.918;2023-12-14T11:13:34;95290.34;;;9.06;96.21
40946;BME280;55635;50.264;11.918;2023-12-14T11:16:15;95292.50;;;9.17;96.71
40946;BME280;55635;50.264;11.918;2023-12-14T11:24:53;95294.53;;;9.01;96.33
40946;BME280;55635;50.264;11.918;2023-12-14T11:27:43;95304.19;;;9.08;96.95
40946;BME280;55635;50.264;11.918;2023-12-14T11:30:24;95304.09;;;9.16;96.26
40946;BME280;55635;50.264;11.918;2023-12-14T11:33:06;95309.75;;;9.13;95.90
40946;BME280;55635;50.264;11.918;2023-12-14T11:35:47;95310.59;;;9.14;95.90
40946;BME280;55635;50.264;11.918;2023-12-14T11:38:28;95314.13;;;9.21;95.64
40946;BME280;55635;50.264;11.918;2023-12-14T11:41:10;95319.03;;;9.24;95.36
40946;BME280;55635;50.264;11.918;2023-12-14T11:43:52;95323.13;;;9.26;95.59
40946;BME280;55635;50.264;11.918;2023-12-14T11:46:33;95313.00;;;9.30;95.79
40946;BME280;55635;50.264;11.918;2023-12-14T11:49:14;95312.84;;;9.32;95.60
40946;BME280;55635;50.264;11.918;2023-12-14T11:51:55;95318.31;;;9.45;94.87
40946;BME280;55635;50.264;11.918;2023-12-14T11:54:37;95322.78;;;9.44;94.86
40946;BME280;55635;50.264;11.918;2023-12-14T11:57:18;95329.47;;;9.61;94.57
40946;BME280;55635;50.264;11.918;2023-12-14T11:59:59;95328.16;;;9.51;94.49
40946;BME280;55635;50.264;11.918;2023-12-14T12:02:41;95331.78;;;9.50;93.79
40946;BME280;55635;50.264;11.918;2023-12-14T12:05:38;95338.38;;;9.39;93.23
40946;BME280;55635;50.264;11.918;2023-12-14T12:08:20;95337.66;;;9.16;93.82
40946;BME280;55635;50.264;11.918;2023-12-14T12:11:01;95334.47;;;9.06;94.26
40946;BME280;55635;50.264;11.918;2023-12-14T12:13:43;95335.84;;;9.16;94.82
40946;BME280;55635;50.264;11.918;2023-12-14T12:16:24;95332.63;;;9.21;94.21
40946;BME280;55635;50.264;11.918;2023-12-14T12:19:05;95341.22;;;9.23;93.88
40946;BME280;55635;50.264;11.918;2023-12-14T12:21:47;95342.47;;;9.27;94.25
40946;BME280;55635;50.264;11.918;2023-12-14T12:24:27;95346.16;;;9.26;93.75
40946;BME280;55635;50.264;11.918;2023-12-14T12:27:09;95348.03;;;9.17;94.14
40946;BME280;55635;50.264;11.918;2023-12-14T12:29:50;95353.53;;;9.01;94.40
40946;BME280;55635;50.264;11.918;2023-12-14T12:32:34;95350.06;;;8.86;94.94
40946;BME280;55635;50.264;11.918;2023-12-14T12:35:15;95355.88;;;8.67;95.30
40946;BME280;55635;50.264;11.918;2023-12-14T12:37:56;95366.19;;;8.77;95.31
40946;BME280;55635;50.264;11.918;2023-12-14T12:40:37;95365.75;;;8.50;95.54
40946;BME280;55635;50.264;11.918;2023-12-14T12:43:19;95360.97;;;8.68;94.72
40946;BME280;55635;50.264;11.918;2023-12-14T12:46:00;95373.44;;;8.74;94.08
40946;BME280;55635;50.264;11.918;2023-12-14T12:48:41;95375.59;;;8.56;94.34
40946;BME280;55635;50.264;11.918;2023-12-14T12:51:22;95375.00;;;8.69;94.14
40946;BME280;55635;50.264;11.918;2023-12-14T12:54:04;95384.09;;;8.52;94.61
40946;BME280;55635;50.264;11.918;2023-12-14T12:56:45;95383.81;;;8.47;94.30
40946;BME280;55635;50.264;11.918;2023-12-14T12:59:26;95391.06;;;8.45;94.30
40946;BME280;55635;50.264;11.918;2023-12-14T13:02:08;95397.75;;;8.55;93.92
40946;BME280;55635;50.264;11.918;2023-12-14T13:04:49;95390.31;;;8.59;94.26
40946;BME280;55635;50.264;11.918;2023-12-14T13:07:30;95396.53;;;8.43;93.92
40946;BME280;55635;50.264;11.918;2023-12-14T13:10:12;95397.00;;;8.47;94.24
40946;BME280;55635;50.264;11.918;2023-12-14T13:12:53;95399.94;;;8.52;94.17
40946;BME280;55635;50.264;11.918;2023-12-14T13:15:34;95406.41;;;8.49;93.93
40946;BME280;55635;50.264;11.918;2023-12-14T13:18:20;95410.38;;;8.45;94.19
40946;BME280;55635;50.264;11.918;2023-12-14T13:21:00;95403.88;;;8.33;94.04
40946;BME280;55635;50.264;11.918;2023-12-14T13:23:42;95425.13;;;8.40;94.70
40946;BME280;55635;50.264;11.918;2023-12-14T13:26:24;95402.78;;;8.28;94.57
40946;BME280;55635;50.264;11.918;2023-12-14T13:29:05;95426.19;;;8.22;94.40
40946;BME280;55635;50.264;11.918;2023-12-14T13:31:47;95405.53;;;8.03;95.11
40946;BME280;55635;50.264;11.918;2023-12-14T13:34:29;95437.78;;;8.21;94.57
40946;BME280;55635;50.264;11.918;2023-12-14T13:37:10;95440.69;;;8.27;94.33
40946;BME280;55635;50.264;11.918;2023-12-14T13:39:51;95439.75;;;8.28;94.51
40946;BME280;55635;50.264;11.918;2023-12-14T13:42:33;95442.09;;;8.14;94.74
40946;BME280;55635;50.264;11.918;2023-12-14T13:45:14;95452.31;;;8.17;94.79
40946;BME280;55635;50.264;11.918;2023-12-14T13:47:56;95449.88;;;8.08;94.91
40946;BME280;55635;50.264;11.918;2023-12-14T13:50:39;95461.97;;;8.02;95.07
40946;BME280;55635;50.264;11.918;2023-12-14T13:53:21;95461.63;;;8.05;94.64
40946;BME280;55635;50.264;11.918;2023-12-14T13:56:03;95467.72;;;8.06;94.57
40946;BME280;55635;50.264;11.918;2023-12-14T13:58:44;95462.44;;;8.06;94.15
40946;BME280;55635;50.264;11.918;2023-12-14T14:01:25;95474.47;;;8.08;93.83
40946;BME280;55635;50.264;11.918;2023-12-14T14:04:06;95485.00;;;8.16;93.24
40946;BME280;55635;50.264;11.918;2023-12-14T14:06:47;95487.47;;;8.18;93.36
40946;BME280;55635;50.264;11.918;2023-12-14T14:09:28;95453.41;;;8.00;92.88
40946;BME280;55635;50.264;11.918;2023-12-14T14:12:09;95500.97;;;8.23;92.19
40946;BME280;55635;50.264;11.918;2023-12-14T14:14:50;95503.88;;;8.05;92.22
40946;BME280;55635;50.264;11.918;2023-12-14T14:17:31;95513.88;;;8.18;92.43
40946;BME280;55635;50.264;11.918;2023-12-14T14:20:13;95515.13;;;7.99;92.03
40946;BME280;55635;50.264;11.918;2023-12-14T14:22:54;95519.38;;;8.08;92.28